createdAt,value
2019-03-30T00:00:36.366Z,75.89
2019-03-30T00:01:36.342Z,75.42
2019-03-30T00:02:38.076Z,75.7
2019-03-30T00:03:36.291Z,75.7
2019-03-30T00:04:36.269Z,75.79
2019-03-30T00:05:36.245Z,75.6
2019-03-30T00:06:36.217Z,75.6
2019-03-30T00:07:36.192Z,75.79
2019-03-30T00:08:36.167Z,75.89
2019-03-30T00:09:36.141Z,75.76
2019-03-30T00:10:36.118Z,75.99
2019-03-30T00:11:36.094Z,75.89
2019-03-30T00:12:36.068Z,75.95
2019-03-30T00:13:36.044Z,76.04
2019-03-30T00:14:36.018Z,75.38
2019-03-30T00:15:35.990Z,75.85
2019-03-30T00:16:35.970Z,76.23
2019-03-30T00:17:35.944Z,76.23
2019-03-30T00:18:35.923Z,76.23
2019-03-30T00:19:37.626Z,76.42
2019-03-30T00:20:35.870Z,76.23
2019-03-30T00:21:35.849Z,76.04
2019-03-30T00:22:35.828Z,76.23
2019-03-30T00:23:35.797Z,76.52
2019-03-30T00:24:35.776Z,76.23
2019-03-30T00:25:35.750Z,76.52
2019-03-30T00:26:35.719Z,76.61
2019-03-30T00:27:35.698Z,76.71
2019-03-30T00:28:35.677Z,76.81
2019-03-30T00:29:35.645Z,76.9
2019-03-30T00:30:35.618Z,76.81
2019-03-30T00:31:35.598Z,77
2019-03-30T00:32:35.578Z,77.09
2019-03-30T00:33:35.548Z,76.81
2019-03-30T00:34:35.524Z,77
2019-03-30T00:35:35.497Z,77.37
2019-03-30T00:36:35.472Z,77.28
2019-03-30T00:37:35.447Z,77.09
2019-03-30T00:38:35.436Z,77.66
2019-03-30T00:39:35.397Z,77.66
2019-03-30T00:40:35.372Z,77.66
2019-03-30T00:41:35.353Z,77.66
2019-03-30T00:42:35.326Z,77.95
2019-03-30T00:43:35.298Z,77.85
2019-03-30T00:44:35.273Z,77.95
2019-03-30T00:45:35.248Z,77.76
2019-03-30T00:46:35.223Z,77.85
2019-03-30T00:47:35.206Z,77.85
2019-03-30T00:48:35.172Z,78.1
2019-03-30T00:49:48.061Z,77.91
2019-03-30T00:50:35.119Z,78.19
2019-03-30T00:51:35.102Z,78.19
2019-03-30T00:52:35.071Z,78
2019-03-30T00:53:35.047Z,78.9
2019-03-30T00:54:35.042Z,78
2019-03-30T00:55:34.997Z,78.67
2019-03-30T00:56:34.973Z,78.19
2019-03-30T00:57:34.945Z,78.57
2019-03-30T00:58:34.923Z,78.96
2019-03-30T00:59:34.900Z,78.86
2019-03-30T01:00:34.871Z,78.67
2019-03-30T01:01:34.850Z,79.14
2019-03-30T01:02:34.818Z,79.05
2019-03-30T01:03:34.794Z,78.86
2019-03-30T01:04:34.776Z,79.14
2019-03-30T01:05:34.749Z,79.14
2019-03-30T01:06:34.720Z,79.05
2019-03-30T01:07:34.696Z,79.14
2019-03-30T01:08:34.673Z,79.43
2019-03-30T01:09:34.663Z,79.24
2019-03-30T01:10:34.616Z,79.72
2019-03-30T01:11:34.594Z,79.62
2019-03-30T01:12:34.569Z,79.52
2019-03-30T01:13:34.545Z,79.52
2019-03-30T01:14:34.525Z,80
2019-03-30T01:15:34.491Z,79.81
2019-03-30T01:16:34.468Z,79.62
2019-03-30T01:17:34.465Z,79.81
2019-03-30T01:18:34.417Z,79.52
2019-03-30T01:19:34.394Z,79.72
2019-03-30T01:20:34.367Z,80
2019-03-30T01:21:34.344Z,80
2019-03-30T01:22:34.318Z,80.1
2019-03-30T01:23:34.288Z,79.96
2019-03-30T01:24:34.266Z,79.91
2019-03-30T01:25:34.240Z,80.38
2019-03-30T01:26:34.240Z,80.29
2019-03-30T01:27:34.259Z,80.34
2019-03-30T01:28:34.159Z,80.47
2019-03-30T01:29:34.135Z,80.86
2019-03-30T01:30:34.111Z,80.66
2019-03-30T01:31:34.087Z,80.72
2019-03-30T01:32:37.481Z,80.29
2019-03-30T01:33:34.034Z,80.38
2019-03-30T01:34:34.010Z,80.53
2019-03-30T01:35:33.985Z,80.72
2019-03-30T01:36:33.962Z,80.72
2019-03-30T01:37:33.933Z,80.72
2019-03-30T01:38:33.907Z,80.44
2019-03-30T01:39:33.885Z,80.24
2019-03-30T01:40:33.861Z,80.44
2019-03-30T01:41:33.829Z,80.24
2019-03-30T01:42:33.839Z,80.72
2019-03-30T01:43:33.806Z,81.1
2019-03-30T01:44:33.754Z,81.1
2019-03-30T01:45:33.727Z,81.01
2019-03-30T01:46:33.704Z,81.29
2019-03-30T01:47:33.680Z,81.1
2019-03-30T01:48:33.653Z,81.2
2019-03-30T01:49:33.631Z,81.01
2019-03-30T01:50:33.603Z,80.72
2019-03-30T01:51:33.575Z,80.82
2019-03-30T01:52:33.549Z,80.82
2019-03-30T01:53:33.519Z,81.01
2019-03-30T01:54:33.496Z,81.2
2019-03-30T01:55:33.472Z,81.01
2019-03-30T01:56:33.446Z,81.01
2019-03-30T01:57:33.432Z,80.63
2019-03-30T01:58:33.395Z,81.2
2019-03-30T01:59:33.371Z,81.2
2019-03-30T02:00:33.340Z,81.2
2019-03-30T02:01:33.317Z,81.29
2019-03-30T02:02:33.294Z,81.2
2019-03-30T02:03:33.268Z,81.48
2019-03-30T02:04:33.247Z,81.2
2019-03-30T02:05:33.213Z,81.48
2019-03-30T02:06:33.191Z,81.48
2019-03-30T02:07:33.163Z,82.24
2019-03-30T02:08:33.140Z,82.05
2019-03-30T02:09:33.112Z,81.58
2019-03-30T02:10:33.088Z,81.86
2019-03-30T02:11:33.062Z,81.58
2019-03-30T02:12:33.129Z,81.58
2019-03-30T02:13:33.012Z,81.77
2019-03-30T02:14:32.986Z,81.38
2019-03-30T02:15:32.960Z,81.38
2019-03-30T02:16:32.945Z,81.77
2019-03-30T02:17:32.905Z,81.58
2019-03-30T02:18:32.891Z,81.86
2019-03-30T02:19:32.854Z,81.86
2019-03-30T02:20:33.584Z,81.86
2019-03-30T02:21:32.810Z,82.05
2019-03-30T02:22:32.778Z,82.53
2019-03-30T02:23:32.750Z,82.24
2019-03-30T02:24:32.725Z,82.24
2019-03-30T02:25:32.697Z,82.05
2019-03-30T02:26:32.672Z,82.05
2019-03-30T02:27:32.658Z,82.43
2019-03-30T02:28:32.631Z,82.05
2019-03-30T02:29:32.599Z,82.53
2019-03-30T02:30:32.579Z,83
2019-03-30T02:31:32.549Z,82.43
2019-03-30T02:32:32.521Z,82.34
2019-03-30T02:33:32.510Z,82.43
2019-03-30T02:34:32.245Z,82.43
2019-03-30T02:35:32.440Z,82.71
2019-03-30T02:36:32.423Z,82.34
2019-03-30T02:37:32.392Z,82.62
2019-03-30T02:38:32.368Z,82.62
2019-03-30T02:39:32.342Z,82.53
2019-03-30T02:40:32.319Z,82.81
2019-03-30T02:41:32.289Z,82.15
2019-03-30T02:42:32.259Z,82.53
2019-03-30T02:43:32.245Z,82.34
2019-03-30T02:44:32.216Z,82.53
2019-03-30T02:45:32.188Z,82.34
2019-03-30T02:46:32.160Z,82.62
2019-03-30T02:47:32.143Z,82.53
2019-03-30T02:48:32.109Z,82.05
2019-03-30T02:49:32.084Z,82.24
2019-03-30T02:50:48.077Z,82.34
2019-03-30T02:51:32.034Z,82.43
2019-03-30T02:52:32.005Z,82.62
2019-03-30T02:53:31.983Z,82.53
2019-03-30T02:54:31.957Z,82.2
2019-03-30T02:55:31.930Z,82.58
2019-03-30T02:56:31.905Z,82.87
2019-03-30T02:57:32.178Z,82.68
2019-03-30T02:58:31.852Z,82.58
2019-03-30T02:59:31.823Z,82.87
2019-03-30T03:00:31.796Z,83.06
2019-03-30T03:01:31.788Z,82.96
2019-03-30T03:02:31.745Z,82.77
2019-03-30T03:03:31.719Z,82.96
2019-03-30T03:04:31.701Z,82.96
2019-03-30T03:05:31.697Z,83.06
2019-03-30T03:06:31.642Z,83.15
2019-03-30T03:07:31.623Z,83.15
2019-03-30T03:08:31.589Z,82.58
2019-03-30T03:09:31.340Z,82.96
2019-03-30T03:10:31.544Z,82.96
2019-03-30T03:11:31.511Z,82.68
2019-03-30T03:12:31.482Z,82.68
2019-03-30T03:13:31.456Z,82.58
2019-03-30T03:14:31.439Z,82.68
2019-03-30T03:15:31.405Z,82.96
2019-03-30T03:16:31.379Z,83.06
2019-03-30T03:17:31.356Z,82.62
2019-03-30T03:18:31.333Z,82.58
2019-03-30T03:19:31.299Z,82.58
2019-03-30T03:20:31.311Z,82.77
2019-03-30T03:21:31.248Z,82.2
2019-03-30T03:22:31.227Z,82.49
2019-03-30T03:23:31.211Z,82.29
2019-03-30T03:24:31.182Z,82.34
2019-03-30T03:25:31.153Z,82.58
2019-03-30T03:26:31.132Z,82.62
2019-03-30T03:27:31.135Z,82.62
2019-03-30T03:28:31.089Z,81.77
2019-03-30T03:29:31.049Z,82.15
2019-03-30T03:30:31.023Z,82.15
2019-03-30T03:31:31.003Z,81.96
2019-03-30T03:32:30.991Z,81.86
2019-03-30T03:33:30.947Z,81.96
2019-03-30T03:34:30.945Z,81.96
2019-03-30T03:35:30.893Z,81.86
2019-03-30T03:36:30.857Z,81.29
2019-03-30T03:37:46.696Z,81.29
2019-03-30T03:38:30.815Z,81.48
2019-03-30T03:39:30.781Z,81.58
2019-03-30T03:40:30.757Z,82.05
2019-03-30T03:41:30.726Z,82.24
2019-03-30T03:42:30.705Z,81.48
2019-03-30T03:43:30.814Z,82.24
2019-03-30T03:44:30.655Z,82.24
2019-03-30T03:45:30.625Z,82.05
2019-03-30T03:46:30.607Z,81.38
2019-03-30T03:47:30.572Z,81.29
2019-03-30T03:48:30.564Z,81.58
2019-03-30T03:49:30.535Z,82.24
2019-03-30T03:50:30.500Z,81.48
2019-03-30T03:51:30.476Z,82.24
2019-03-30T03:52:30.461Z,81.86
2019-03-30T03:53:30.420Z,81.96
2019-03-30T03:54:30.391Z,81.86
2019-03-30T03:55:30.387Z,81.58
2019-03-30T03:56:30.345Z,81.58
2019-03-30T03:57:30.331Z,81.48
2019-03-30T03:58:30.295Z,81.2
2019-03-30T03:59:30.271Z,81.86
2019-03-30T04:00:30.241Z,81.48
2019-03-30T04:01:30.214Z,81.58
2019-03-30T04:02:30.187Z,82.05
2019-03-30T04:03:30.164Z,81.96
2019-03-30T04:04:30.132Z,81.86
2019-03-30T04:05:30.119Z,81.58
2019-03-30T04:06:30.088Z,82.1
2019-03-30T04:07:29.823Z,81.96
2019-03-30T04:08:30.053Z,81.44
2019-03-30T04:09:30.016Z,81.92
2019-03-30T04:10:30.094Z,81.44
2019-03-30T04:11:29.951Z,81.63
2019-03-30T04:12:29.933Z,81.63
2019-03-30T04:13:29.901Z,82.01
2019-03-30T04:14:29.878Z,81.35
2019-03-30T04:15:29.847Z,81.73
2019-03-30T04:16:29.820Z,81.82
2019-03-30T04:17:29.794Z,81.63
2019-03-30T04:18:29.768Z,81.92
2019-03-30T04:19:29.745Z,81.73
2019-03-30T04:20:29.717Z,81.73
2019-03-30T04:21:45.328Z,81.73
2019-03-30T04:22:29.673Z,81.73
2019-03-30T04:23:29.649Z,81.63
2019-03-30T04:24:29.622Z,81.92
2019-03-30T04:25:29.586Z,81.73
2019-03-30T04:26:29.563Z,81.92
2019-03-30T04:27:29.544Z,81.82
2019-03-30T04:28:29.521Z,82.01
2019-03-30T04:29:29.511Z,81.63
2019-03-30T04:30:29.461Z,81.92
2019-03-30T04:31:29.429Z,81.82
2019-03-30T04:32:29.408Z,81.92
2019-03-30T04:33:29.382Z,82.1
2019-03-30T04:34:29.356Z,81.82
2019-03-30T04:35:29.334Z,81.63
2019-03-30T04:36:29.297Z,81.92
2019-03-30T04:37:29.290Z,81.73
2019-03-30T04:38:29.249Z,82.01
2019-03-30T04:39:29.224Z,82.01
2019-03-30T04:40:29.195Z,82.2
2019-03-30T04:41:29.171Z,82.1
2019-03-30T04:42:29.151Z,82.29
2019-03-30T04:43:29.117Z,81.82
2019-03-30T04:44:29.092Z,82.68
2019-03-30T04:45:29.067Z,82.49
2019-03-30T04:46:28.817Z,82.01
2019-03-30T04:47:29.018Z,82.2
2019-03-30T04:48:31.901Z,82.1
2019-03-30T04:49:28.960Z,82.29
2019-03-30T04:50:28.945Z,82.01
2019-03-30T04:51:28.907Z,82.01
2019-03-30T04:52:28.884Z,81.73
2019-03-30T04:53:28.856Z,82.1
2019-03-30T04:54:28.830Z,82.1
2019-03-30T04:55:28.804Z,82.05
2019-03-30T04:56:28.781Z,81.82
2019-03-30T04:57:28.752Z,81.73
2019-03-30T04:58:28.730Z,81.86
2019-03-30T04:59:28.703Z,81.77
2019-03-30T05:00:28.675Z,81.58
2019-03-30T05:01:28.708Z,81.77
2019-03-30T05:02:28.631Z,81.58
2019-03-30T05:03:28.598Z,81.38
2019-03-30T05:04:28.571Z,81.67
2019-03-30T05:05:28.551Z,81.58
2019-03-30T05:06:28.515Z,81.86
2019-03-30T05:07:28.496Z,81.29
2019-03-30T05:08:28.480Z,81.48
2019-03-30T05:09:28.438Z,81.2
2019-03-30T05:10:28.411Z,81.29
2019-03-30T05:11:28.387Z,81.29
2019-03-30T05:12:28.377Z,81.48
2019-03-30T05:13:28.335Z,81.58
2019-03-30T05:14:28.105Z,81.58
2019-03-30T05:15:28.285Z,81.48
2019-03-30T05:16:28.256Z,81.58
2019-03-30T05:17:44.647Z,81.48
2019-03-30T05:18:28.203Z,81.58
2019-03-30T05:19:28.542Z,81.48
2019-03-30T05:20:28.156Z,81.67
2019-03-30T05:21:28.128Z,81.48
2019-03-30T05:22:28.104Z,81.29
2019-03-30T05:23:28.074Z,81.67
2019-03-30T05:24:28.049Z,81.2
2019-03-30T05:25:28.028Z,81.2
2019-03-30T05:26:28.004Z,81.38
2019-03-30T05:27:28.078Z,81.1
2019-03-30T05:28:27.951Z,81.01
2019-03-30T05:29:27.922Z,81.2
2019-03-30T05:30:27.894Z,80.91
2019-03-30T05:31:27.869Z,81.1
2019-03-30T05:32:27.839Z,81.2
2019-03-30T05:33:27.814Z,80.05
2019-03-30T05:34:27.795Z,80.44
2019-03-30T05:35:27.763Z,80.63
2019-03-30T05:36:27.738Z,80.63
2019-03-30T05:37:27.716Z,80.72
2019-03-30T05:38:27.721Z,80.44
2019-03-30T05:39:27.704Z,80.44
2019-03-30T05:40:27.633Z,80.24
2019-03-30T05:41:27.611Z,80.05
2019-03-30T05:42:27.588Z,80.1
2019-03-30T05:43:27.556Z,80.05
2019-03-30T05:44:27.541Z,79.96
2019-03-30T05:45:27.509Z,80.19
2019-03-30T05:46:27.482Z,79.68
2019-03-30T05:47:27.458Z,79.62
2019-03-30T05:48:27.430Z,79.52
2019-03-30T05:49:27.406Z,79.43
2019-03-30T05:50:27.384Z,79.52
2019-03-30T05:51:27.356Z,79.24
2019-03-30T05:52:29.303Z,79.33
2019-03-30T05:53:27.315Z,79.05
2019-03-30T05:54:27.280Z,78.67
2019-03-30T05:55:27.253Z,78.96
2019-03-30T05:56:27.226Z,78.86
2019-03-30T05:57:27.198Z,78.57
2019-03-30T05:58:27.174Z,78.57
2019-03-30T05:59:27.149Z,78.86
2019-03-30T06:00:27.125Z,78.77
2019-03-30T06:01:27.100Z,78.67
2019-03-30T06:02:27.078Z,77.91
2019-03-30T06:03:27.050Z,77.95
2019-03-30T06:04:27.028Z,78.42
2019-03-30T06:05:27.005Z,77.91
2019-03-30T06:06:26.974Z,77.72
2019-03-30T06:07:26.951Z,77.72
2019-03-30T06:08:26.927Z,77.95
2019-03-30T06:09:26.901Z,77.37
2019-03-30T06:10:26.874Z,77.76
2019-03-30T06:11:26.849Z,77.56
2019-03-30T06:12:26.830Z,77.47
2019-03-30T06:13:26.808Z,77.09
2019-03-30T06:14:26.778Z,77.09
2019-03-30T06:15:26.753Z,76.9
2019-03-30T06:16:26.730Z,76.81
2019-03-30T06:17:26.706Z,76.61
2019-03-30T06:18:26.696Z,76.23
2019-03-30T06:19:26.658Z,76.33
2019-03-30T06:20:26.625Z,75.76
2019-03-30T06:21:26.605Z,75.51
2019-03-30T06:22:39.382Z,75.42
2019-03-30T06:23:26.555Z,75.42
2019-03-30T06:24:26.532Z,74.84
2019-03-30T06:25:26.510Z,75.13
2019-03-30T06:26:26.490Z,74.75
2019-03-30T06:27:26.457Z,75.04
2019-03-30T06:28:26.437Z,74.27
2019-03-30T06:29:26.409Z,74.27
2019-03-30T06:30:26.396Z,74.18
2019-03-30T06:31:26.358Z,74.08
2019-03-30T06:32:26.335Z,74.18
2019-03-30T06:33:26.314Z,73.99
2019-03-30T06:34:26.289Z,73.61
2019-03-30T06:35:26.274Z,73.7
2019-03-30T06:36:26.238Z,73.51
2019-03-30T06:37:26.216Z,73.51
2019-03-30T06:38:26.190Z,73.13
2019-03-30T06:39:26.165Z,72.97
2019-03-30T06:40:26.147Z,72.88
2019-03-30T06:41:26.117Z,73.17
2019-03-30T06:42:26.096Z,72.88
2019-03-30T06:43:26.072Z,72.6
2019-03-30T06:44:26.049Z,72.31
2019-03-30T06:45:26.027Z,72.78
2019-03-30T06:46:26.000Z,72.78
2019-03-30T06:47:25.975Z,72.12
2019-03-30T06:48:25.953Z,72.12
2019-03-30T06:49:25.932Z,71.93
2019-03-30T06:50:25.909Z,71.93
2019-03-30T06:51:25.883Z,71.55
2019-03-30T06:52:25.956Z,71.36
2019-03-30T06:53:25.834Z,71.64
2019-03-30T06:54:25.817Z,71.45
2019-03-30T06:55:25.796Z,71.26
2019-03-30T06:56:25.822Z,70.82
2019-03-30T06:57:25.741Z,70.82
2019-03-30T06:58:25.721Z,71.01
2019-03-30T06:59:25.697Z,70.92
2019-03-30T07:00:25.673Z,71.2
2019-03-30T07:01:25.647Z,70.53
2019-03-30T07:02:25.625Z,70.53
2019-03-30T07:03:25.600Z,70.44
2019-03-30T07:04:25.578Z,70.53
2019-03-30T07:05:25.559Z,70.15
2019-03-30T07:06:25.536Z,69.96
2019-03-30T07:07:25.511Z,69.96
2019-03-30T07:08:25.491Z,69.77
2019-03-30T07:09:25.461Z,69.68
2019-03-30T07:10:25.441Z,69.1
2019-03-30T07:11:25.415Z,69.71
2019-03-30T07:12:25.462Z,69.62
2019-03-30T07:13:25.373Z,69.04
2019-03-30T07:14:25.349Z,68.95
2019-03-30T07:15:25.326Z,68.85
2019-03-30T07:16:25.301Z,68.95
2019-03-30T07:17:25.281Z,68.66
2019-03-30T07:18:25.258Z,68.57
2019-03-30T07:19:25.266Z,68.18
2019-03-30T07:20:25.209Z,68.09
2019-03-30T07:21:25.192Z,68.09
2019-03-30T07:22:25.164Z,68.09
2019-03-30T07:23:25.148Z,67.71
2019-03-30T07:24:25.123Z,67.9
2019-03-30T07:25:25.098Z,67.61
2019-03-30T07:26:25.074Z,67.42
2019-03-30T07:27:25.052Z,66.78
2019-03-30T07:28:25.031Z,67.07
2019-03-30T07:29:25.008Z,67.04
2019-03-30T07:30:24.750Z,66.6
2019-03-30T07:31:24.964Z,66.22
2019-03-30T07:32:24.943Z,66.88
2019-03-30T07:33:24.921Z,66.5
2019-03-30T07:34:24.900Z,66.31
2019-03-30T07:35:24.881Z,65.93
2019-03-30T07:36:24.858Z,65.83
2019-03-30T07:37:24.829Z,65.93
2019-03-30T07:38:24.809Z,66.22
2019-03-30T07:39:24.784Z,65.17
2019-03-30T07:40:24.767Z,65.55
2019-03-30T07:41:24.744Z,65.55
2019-03-30T07:42:24.723Z,65.07
2019-03-30T07:43:24.700Z,65.3
2019-03-30T07:44:24.674Z,64.62
2019-03-30T07:45:24.654Z,65.01
2019-03-30T07:46:24.634Z,65.2
2019-03-30T07:47:24.614Z,64.34
2019-03-30T07:48:24.586Z,63.86
2019-03-30T07:49:24.564Z,64.25
2019-03-30T07:50:24.547Z,64.05
2019-03-30T07:51:24.527Z,63.51
2019-03-30T07:52:24.501Z,63.23
2019-03-30T07:53:29.252Z,62.75
2019-03-30T07:54:24.461Z,62.55
2019-03-30T07:55:24.438Z,62.75
2019-03-30T07:56:24.412Z,62.75
2019-03-30T07:57:24.402Z,62.27
2019-03-30T07:58:24.377Z,61.35
2019-03-30T07:59:24.361Z,61.44
2019-03-30T08:00:29.140Z,61.25
2019-03-30T08:01:24.307Z,60.39
2019-03-30T08:02:24.291Z,60.01
2019-03-30T08:03:24.269Z,60.3
2019-03-30T08:04:24.250Z,59.91
2019-03-30T08:05:24.226Z,59.72
2019-03-30T08:06:24.202Z,59.91
2019-03-30T08:07:24.185Z,59.15
2019-03-30T08:08:23.987Z,58.98
2019-03-30T08:09:24.140Z,58.51
2019-03-30T08:10:24.118Z,58.61
2019-03-30T08:11:24.099Z,58.41
2019-03-30T08:12:24.077Z,57.93
2019-03-30T08:13:24.058Z,57.75
2019-03-30T08:14:24.126Z,57.55
2019-03-30T08:15:24.015Z,57.84
2019-03-30T08:16:23.993Z,57.07
2019-03-30T08:17:23.974Z,57.07
2019-03-30T08:18:23.957Z,56.88
2019-03-30T08:19:24.357Z,57.07
2019-03-30T08:20:23.918Z,57.17
2019-03-30T08:21:23.890Z,56.69
2019-03-30T08:22:23.872Z,56.21
2019-03-30T08:23:23.850Z,56.15
2019-03-30T08:24:23.833Z,56.34
2019-03-30T08:25:23.811Z,56.34
2019-03-30T08:26:23.792Z,55.76
2019-03-30T08:27:23.775Z,56.34
2019-03-30T08:28:23.753Z,55.38
2019-03-30T08:29:24.219Z,55.86
2019-03-30T08:30:23.716Z,55.76
2019-03-30T08:31:23.696Z,55.1
2019-03-30T08:32:23.671Z,55
2019-03-30T08:33:23.649Z,55.29
2019-03-30T08:34:23.630Z,54.55
2019-03-30T08:35:23.633Z,54.64
2019-03-30T08:36:23.588Z,54.64
2019-03-30T08:37:23.579Z,54.36
2019-03-30T08:38:23.552Z,54.45
2019-03-30T08:39:23.528Z,54.07
2019-03-30T08:40:23.508Z,54.07
2019-03-30T08:41:24.692Z,53.69
2019-03-30T08:42:23.469Z,53.4
2019-03-30T08:43:23.451Z,53.97
2019-03-30T08:44:23.433Z,53.69
2019-03-30T08:45:23.435Z,53.69
2019-03-30T08:46:23.394Z,53.23
2019-03-30T08:47:23.375Z,53.04
2019-03-30T08:48:23.356Z,52.95
2019-03-30T08:49:23.336Z,52.37
2019-03-30T08:50:23.318Z,52.75
2019-03-30T08:51:23.409Z,52.09
2019-03-30T08:52:23.279Z,51.7
2019-03-30T08:53:23.260Z,51.92
2019-03-30T08:54:23.243Z,51.44
2019-03-30T08:55:23.223Z,51.34
2019-03-30T08:56:23.205Z,50.77
2019-03-30T08:57:23.241Z,51.06
2019-03-30T08:58:23.197Z,50.87
2019-03-30T08:59:23.151Z,50.2
2019-03-30T09:00:23.135Z,50.03
2019-03-30T09:01:23.123Z,50.03
2019-03-30T09:02:23.102Z,49.45
2019-03-30T09:03:23.082Z,49.36
2019-03-30T09:04:23.102Z,48.4
2019-03-30T09:05:23.040Z,48.4
2019-03-30T09:06:23.041Z,48.59
2019-03-30T09:07:22.774Z,48.21
2019-03-30T09:08:22.989Z,47.73
2019-03-30T09:09:22.976Z,47.85
2019-03-30T09:10:22.954Z,47.44
2019-03-30T09:11:22.940Z,47.66
2019-03-30T09:12:22.926Z,47.75
2019-03-30T09:13:22.903Z,47.37
2019-03-30T09:14:22.888Z,47.08
2019-03-30T09:15:22.870Z,47.27
2019-03-30T09:16:22.897Z,47.37
2019-03-30T09:17:22.840Z,46.89
2019-03-30T09:18:22.822Z,46.31
2019-03-30T09:19:22.803Z,46.41
2019-03-30T09:20:22.784Z,46.12
2019-03-30T09:21:22.774Z,46.22
2019-03-30T09:22:22.754Z,46.31
2019-03-30T09:23:22.734Z,46.22
2019-03-30T09:24:22.719Z,46.22
2019-03-30T09:25:22.707Z,46.03
2019-03-30T09:26:22.690Z,45.74
2019-03-30T09:27:22.676Z,45.74
2019-03-30T09:28:22.655Z,46.03
2019-03-30T09:29:22.633Z,45.45
2019-03-30T09:30:22.619Z,44.97
2019-03-30T09:31:22.598Z,45
2019-03-30T09:32:22.582Z,45.18
2019-03-30T09:33:22.573Z,45.37
2019-03-30T09:34:22.548Z,45.18
2019-03-30T09:35:22.529Z,45.18
2019-03-30T09:36:22.514Z,45.18
2019-03-30T09:37:22.500Z,44.8
2019-03-30T09:38:22.488Z,44.61
2019-03-30T09:39:22.465Z,44.9
2019-03-30T09:40:22.450Z,45.09
2019-03-30T09:41:22.380Z,44.42
2019-03-30T09:42:22.417Z,44.42
2019-03-30T09:43:22.442Z,44.51
2019-03-30T09:44:22.381Z,44.03
2019-03-30T09:45:22.363Z,44.61
2019-03-30T09:46:22.344Z,44.03
2019-03-30T09:47:22.328Z,44.32
2019-03-30T09:48:22.309Z,43.84
2019-03-30T09:49:22.318Z,43.46
2019-03-30T09:50:22.278Z,43.74
2019-03-30T09:51:22.258Z,42.98
2019-03-30T09:52:22.244Z,43.17
2019-03-30T09:53:22.226Z,42.98
2019-03-30T09:54:26.482Z,42.98
2019-03-30T09:55:22.189Z,42.5
2019-03-30T09:56:22.175Z,42.6
2019-03-30T09:57:22.155Z,42.79
2019-03-30T09:58:22.139Z,42.6
2019-03-30T09:59:22.118Z,42.11
2019-03-30T10:00:22.104Z,42.4
2019-03-30T10:01:22.087Z,42.4
2019-03-30T10:02:22.071Z,42.02
2019-03-30T10:03:22.051Z,42.13
2019-03-30T10:04:22.034Z,41.85
2019-03-30T10:05:22.036Z,40.79
2019-03-30T10:06:30.385Z,40.5
2019-03-30T10:07:21.982Z,40.6
2019-03-30T10:08:21.965Z,40.5
2019-03-30T10:09:21.944Z,39.91
2019-03-30T10:10:21.931Z,40.2
2019-03-30T10:11:21.915Z,40.39
2019-03-30T10:12:21.895Z,40.02
2019-03-30T10:13:21.875Z,39.93
2019-03-30T10:14:21.862Z,39.93
2019-03-30T10:15:21.844Z,39.93
2019-03-30T10:16:21.826Z,40.02
2019-03-30T10:17:21.809Z,39.45
2019-03-30T10:18:21.795Z,39.06
2019-03-30T10:19:21.777Z,39.45
2019-03-30T10:20:21.759Z,39.73
2019-03-30T10:21:21.738Z,39.45
2019-03-30T10:22:21.727Z,38.96
2019-03-30T10:23:21.710Z,38.39
2019-03-30T10:24:21.756Z,38.78
2019-03-30T10:25:21.674Z,38.59
2019-03-30T10:26:21.653Z,38.49
2019-03-30T10:27:21.639Z,38.39
2019-03-30T10:28:21.618Z,38.2
2019-03-30T10:29:21.606Z,38.1
2019-03-30T10:30:21.584Z,38.29
2019-03-30T10:31:22.290Z,38.29
2019-03-30T10:32:22.296Z,38.01
2019-03-30T10:33:21.534Z,38.68
2019-03-30T10:34:21.519Z,38.49
2019-03-30T10:35:21.501Z,38.68
2019-03-30T10:36:21.482Z,38.59
2019-03-30T10:37:21.553Z,38.68
2019-03-30T10:38:21.467Z,38.49
2019-03-30T10:39:21.431Z,38.59
2019-03-30T10:40:23.350Z,38.89
2019-03-30T10:41:21.398Z,38.6
2019-03-30T10:42:21.380Z,38.79
2019-03-30T10:43:21.360Z,38.99
2019-03-30T10:44:21.348Z,39.18
2019-03-30T10:45:21.327Z,39.37
2019-03-30T10:46:21.506Z,39.28
2019-03-30T10:47:21.294Z,39.54
2019-03-30T10:48:21.278Z,38.68
2019-03-30T10:49:21.261Z,38.78
2019-03-30T10:50:21.244Z,38.49
2019-03-30T10:51:21.227Z,38.59
2019-03-30T10:52:21.880Z,38.29
2019-03-30T10:53:21.191Z,38.1
2019-03-30T10:54:21.168Z,38.1
2019-03-30T10:55:21.224Z,38.2
2019-03-30T10:56:21.140Z,38.29
2019-03-30T10:57:21.121Z,38.2
2019-03-30T10:58:21.102Z,38.68
2019-03-30T10:59:21.123Z,38.78
2019-03-30T11:00:21.069Z,38.78
2019-03-30T11:01:21.094Z,38.49
2019-03-30T11:02:21.040Z,38.87
2019-03-30T11:03:21.017Z,39.16
2019-03-30T11:04:20.999Z,39.64
2019-03-30T11:05:20.986Z,39.35
2019-03-30T11:06:20.967Z,39.35
2019-03-30T11:07:21.041Z,38.96
2019-03-30T11:08:20.932Z,38.87
2019-03-30T11:09:20.917Z,38.89
2019-03-30T11:10:20.898Z,38.78
2019-03-30T11:11:20.914Z,38.78
2019-03-30T11:12:20.862Z,38.68
2019-03-30T11:13:20.848Z,38.96
2019-03-30T11:14:20.828Z,38.49
2019-03-30T11:15:20.815Z,38.78
2019-03-30T11:16:20.798Z,38.78
2019-03-30T11:17:21.897Z,38.87
2019-03-30T11:18:20.760Z,38.96
2019-03-30T11:19:20.747Z,39.35
2019-03-30T11:20:20.731Z,39.54
2019-03-30T11:21:20.709Z,39.54
2019-03-30T11:22:20.693Z,39.45
2019-03-30T11:23:20.677Z,39.45
2019-03-30T11:24:20.662Z,39.45
2019-03-30T11:25:20.643Z,39.45
2019-03-30T11:26:20.627Z,39.16
2019-03-30T11:27:20.619Z,38.59
2019-03-30T11:28:20.593Z,38.68
2019-03-30T11:29:20.574Z,38.89
2019-03-30T11:30:20.556Z,38.22
2019-03-30T11:31:20.535Z,38.12
2019-03-30T11:32:20.520Z,38.22
2019-03-30T11:33:20.503Z,38.6
2019-03-30T11:34:20.486Z,38.89
2019-03-30T11:35:20.475Z,38.68
2019-03-30T11:36:21.204Z,38.6
2019-03-30T11:37:20.435Z,38.6
2019-03-30T11:38:20.422Z,38.51
2019-03-30T11:39:20.406Z,38.89
2019-03-30T11:40:20.387Z,38.12
2019-03-30T11:41:20.369Z,38.02
2019-03-30T11:42:20.353Z,38.22
2019-03-30T11:43:20.337Z,38.39
2019-03-30T11:44:20.317Z,38.32
2019-03-30T11:45:20.304Z,38.29
2019-03-30T11:46:20.283Z,38.39
2019-03-30T11:47:20.267Z,38.39
2019-03-30T11:48:20.250Z,38.41
2019-03-30T11:49:20.233Z,38.41
2019-03-30T11:50:20.214Z,38.02
2019-03-30T11:51:20.202Z,37.55
2019-03-30T11:52:20.211Z,37.16
2019-03-30T11:53:20.165Z,36.97
2019-03-30T11:54:20.148Z,36.88
2019-03-30T11:55:24.490Z,36.58
2019-03-30T11:56:20.117Z,36.4
2019-03-30T11:57:20.096Z,35.93
2019-03-30T11:58:20.080Z,36.22
2019-03-30T11:59:20.065Z,36.03
2019-03-30T12:00:20.050Z,35.93
2019-03-30T12:01:21.735Z,35.93
2019-03-30T12:02:30.437Z,36.22
2019-03-30T12:03:20.003Z,36.32
2019-03-30T12:04:19.984Z,36.22
2019-03-30T12:05:19.969Z,36.32
2019-03-30T12:06:19.714Z,36.03
2019-03-30T12:07:19.935Z,35.83
2019-03-30T12:08:19.921Z,36.03
2019-03-30T12:09:19.855Z,36.22
2019-03-30T12:10:19.888Z,35.64
2019-03-30T12:11:20.019Z,35.36
2019-03-30T12:12:19.949Z,35.16
2019-03-30T12:13:19.861Z,35.36
2019-03-30T12:14:19.824Z,35.16
2019-03-30T12:15:19.808Z,35.06
2019-03-30T12:16:19.797Z,35.36
2019-03-30T12:17:19.783Z,35.26
2019-03-30T12:18:19.760Z,35.45
2019-03-30T12:19:19.744Z,34.99
2019-03-30T12:20:19.730Z,35.18
2019-03-30T12:21:19.711Z,35.28
2019-03-30T12:22:19.700Z,34.99
2019-03-30T12:23:19.684Z,34.89
2019-03-30T12:24:19.666Z,34.61
2019-03-30T12:25:19.649Z,34.7
2019-03-30T12:26:19.676Z,34.61
2019-03-30T12:27:19.618Z,34.8
2019-03-30T12:28:19.606Z,34.99
2019-03-30T12:29:19.664Z,34.89
2019-03-30T12:30:19.798Z,34.99
2019-03-30T12:31:19.569Z,34.8
2019-03-30T12:32:19.552Z,34.8
2019-03-30T12:33:19.529Z,34.8
2019-03-30T12:34:19.519Z,34.89
2019-03-30T12:35:19.496Z,34.7
2019-03-30T12:36:19.482Z,34.61
2019-03-30T12:37:19.542Z,34.8
2019-03-30T12:38:19.450Z,34.7
2019-03-30T12:39:19.433Z,34.51
2019-03-30T12:40:19.459Z,34.22
2019-03-30T12:41:20.933Z,33.84
2019-03-30T12:42:20.145Z,34.03
2019-03-30T12:43:19.430Z,33.95
2019-03-30T12:44:19.355Z,33.66
2019-03-30T12:45:19.346Z,33.56
2019-03-30T12:46:19.347Z,33.37
2019-03-30T12:47:19.322Z,33.58
2019-03-30T12:48:19.300Z,32.9
2019-03-30T12:49:19.284Z,32.9
2019-03-30T12:50:19.272Z,33
2019-03-30T12:51:19.255Z,32.71
2019-03-30T12:52:19.241Z,32.52
2019-03-30T12:53:19.226Z,32.71
2019-03-30T12:54:19.210Z,32.52
2019-03-30T12:55:19.198Z,32.23
2019-03-30T12:56:19.184Z,32.04